Terminal Aerodrome Forecast
Issued by NWS

Home | Current Version | Previous Version | Text Only | Print | Product List | Glossary On
Versions: 1 2 3 4 5 6 7 8 9 10 11 12 13 14 15 16 17 18 19 20 21
000
FTUS46 KLOX 190907 AAA
TAFSBP
TAF AMD
KSBP 190907Z 1909/2006 VRB03KT P6SM SKC
     FM191030 31006KT 6SM BR BKN008
     FM191200 VRB03KT 4SM BR OVC004
     FM191600 30004KT 5SM BR BKN007
     FM191730 25007KT P6SM SKC
     FM192000 29010KT P6SM SKC
     FM200500 30006KT 6SM BR BKN007=

USA.gov is the U.S. government's official web portal to all federal, state and local government web resources and services.